Terminal Aerodrome Forecast
Issued by NWS

Home | Current Version | Previous Version | Text Only | Print | Product List | Glossary On
Versions: 1 2 3 4 5 6 7 8 9 10 11 12 13 14 15 16 17 18 19 20 21 22 23 24 25
088
FTUS43 KIND 210520
TAFBMG
TAF
KBMG 210520Z 2106/2206 15006KT P6SM BKN250
     FM211400 18006KT P6SM VCSH OVC150
     FM211700 21007KT P6SM VCSH OVC070
     FM212100 21006KT 2SM BR VCSH OVC025
     FM220000 19004KT 3SM BR VCSH OVC015
      AMD LTD TO CLD VIS AND WIND TIL 211400=

USA.gov is the U.S. government's official web portal to all federal, state and local government web resources and services.